Time,TemperatureF,DewpointF,PressureIn,WindDirection,WindDirectionDegrees,WindSpeedMPH,WindSpeedGustMPH,Humidity,HourlyPrecipIn,Conditions,Clouds,dailyrainin,SolarRadiationWatts/m^2,SoftwareType,DateUTC
2013-11-26 00:21:00,22.0,16.0,-100.00,NW,309,5.0,6.0,77,0.00,,,0.05,0.000000,,2013-11-26 07:21:00,
2013-11-26 00:32:00,22.0,16.0,-100.00,NW,309,5.0,6.0,77,0.00,,,0.05,0.000000,,2013-11-26 07:32:00,
2013-11-26 00:42:00,22.0,16.0,-100.00,NW,309,5.0,6.0,77,0.00,,,0.05,0.000000,,2013-11-26 07:42:00,
2013-11-26 00:52:00,22.0,16.0,-100.00,NW,309,5.0,6.0,77,0.00,,,0.05,0.000000,,2013-11-26 07:52:00,
2013-11-26 01:22:00,22.0,16.0,-100.00,NW,305,0.0,7.0,78,0.00,,,0.05,0.000000,,2013-11-26 08:22:00,
2013-11-26 01:32:00,22.0,16.0,-100.00,NW,305,0.0,7.0,78,0.00,,,0.05,0.000000,,2013-11-26 08:32:00,
2013-11-26 01:42:00,22.0,16.0,-100.00,NW,305,0.0,7.0,78,0.00,,,0.05,0.000000,,2013-11-26 08:42:00,
2013-11-26 01:52:00,22.0,16.0,-100.00,NW,305,0.0,7.0,78,0.00,,,0.05,0.000000,,2013-11-26 08:52:00,
2013-11-26 02:21:00,20.0,16.0,-100.00,ENE,70,2.0,3.0,85,0.00,,,0.05,0.000000,,2013-11-26 09:21:00,
2013-11-26 02:33:00,20.0,16.0,-100.00,ENE,70,2.0,3.0,85,0.00,,,0.05,0.000000,,2013-11-26 09:33:00,
2013-11-26 02:43:00,20.0,16.0,-100.00,ENE,70,2.0,3.0,85,0.00,,,0.05,0.000000,,2013-11-26 09:43:00,
2013-11-26 02:53:00,20.0,16.0,-100.00,ENE,70,2.0,3.0,85,0.00,,,0.05,0.000000,,2013-11-26 09:53:00,
2013-11-26 03:23:00,18.0,14.0,-100.00,East,79,2.0,3.0,85,0.00,,,0.05,0.000000,,2013-11-26 10:23:00,
2013-11-26 03:33:00,18.0,14.0,-100.00,East,79,2.0,3.0,85,0.00,,,0.05,0.000000,,2013-11-26 10:33:00,
2013-11-26 03:43:00,18.0,14.0,-100.00,East,79,2.0,3.0,85,0.00,,,0.05,0.000000,,2013-11-26 10:43:00,
2013-11-26 03:53:00,18.0,14.0,-100.00,East,79,2.0,3.0,85,0.00,,,0.05,0.000000,,2013-11-26 10:53:00,
2013-11-26 04:23:00,19.0,14.0,-100.00,ENE,69,2.0,4.0,82,0.00,,,0.05,0.000000,,2013-11-26 11:23:00,
2013-11-26 04:33:00,19.0,14.0,-100.00,ENE,69,2.0,4.0,82,0.00,,,0.05,0.000000,,2013-11-26 11:33:00,
2013-11-26 04:42:00,19.0,14.0,-100.00,ENE,69,2.0,4.0,82,0.00,,,0.05,0.000000,,2013-11-26 11:42:00,
2013-11-26 04:52:00,19.0,14.0,-100.00,ENE,69,2.0,4.0,82,0.00,,,0.05,0.000000,,2013-11-26 11:52:00,
2013-11-26 05:22:00,20.0,15.0,-100.00,NNE,17,1.0,3.0,80,0.00,,,0.05,0.000000,,2013-11-26 12:22:00,
2013-11-26 05:32:00,20.0,15.0,-100.00,NNE,17,1.0,3.0,80,0.00,,,0.05,0.000000,,2013-11-26 12:32:00,
2013-11-26 05:42:00,20.0,15.0,-100.00,NNE,17,1.0,3.0,80,0.00,,,0.05,0.000000,,2013-11-26 12:42:00,
2013-11-26 05:52:00,20.0,15.0,-100.00,NNE,17,1.0,3.0,80,0.00,,,0.05,0.000000,,2013-11-26 12:52:00,
2013-11-26 06:22:00,18.0,14.0,-100.00,NE,43,0.0,5.0,84,0.00,,,0.05,0.000000,,2013-11-26 13:22:00,
2013-11-26 06:32:00,18.0,14.0,-100.00,NE,43,0.0,5.0,84,0.00,,,0.05,0.000000,,2013-11-26 13:32:00,
2013-11-26 06:42:00,18.0,14.0,-100.00,NE,43,0.0,5.0,84,0.00,,,0.05,0.000000,,2013-11-26 13:42:00,
2013-11-26 06:52:00,18.0,14.0,-100.00,NE,43,0.0,5.0,84,0.00,,,0.05,0.000000,,2013-11-26 13:52:00,
2013-11-26 07:22:00,18.0,13.0,-100.00,NNW,342,2.0,4.0,80,0.00,,,0.05,1.000000,,2013-11-26 14:22:00,
2013-11-26 07:32:00,18.0,13.0,-100.00,NNW,342,2.0,4.0,80,0.00,,,0.05,1.000000,,2013-11-26 14:32:00,
2013-11-26 07:42:00,18.0,13.0,-100.00,NNW,342,2.0,4.0,80,0.00,,,0.05,1.000000,,2013-11-26 14:42:00,
2013-11-26 07:52:00,18.0,13.0,-100.00,NNW,342,2.0,4.0,80,0.00,,,0.05,1.000000,,2013-11-26 14:52:00,
2013-11-26 08:54:00,24.0,17.0,-100.00,ESE,122,1.0,4.0,73,0.00,,,0.05,29.000000,,2013-11-26 15:54:00,
2013-11-26 09:43:00,28.0,16.0,-100.00,ESE,105,2.0,4.0,61,0.00,,,0.05,187.000000,,2013-11-26 16:43:00,
2013-11-26 09:54:00,28.0,16.0,-100.00,ESE,105,2.0,4.0,61,0.00,,,0.05,187.000000,,2013-11-26 16:54:00,
2013-11-26 10:22:00,30.0,17.0,-100.00,WSW,244,4.0,6.0,58,0.01,,,0.06,331.000000,,2013-11-26 17:22:00,
2013-11-26 10:33:00,30.0,17.0,-100.00,WSW,244,4.0,6.0,58,0.01,,,0.06,331.000000,,2013-11-26 17:33:00,
2013-11-26 10:42:00,30.0,17.0,-100.00,WSW,244,4.0,6.0,58,0.01,,,0.06,331.000000,,2013-11-26 17:42:00,
2013-11-26 10:52:00,30.0,17.0,-100.00,WSW,244,4.0,6.0,58,0.01,,,0.06,331.000000,,2013-11-26 17:52:00,
2013-11-26 12:22:00,32.0,18.0,-100.00,West,264,11.0,15.0,55,0.00,,,0.01,519.000000,,2013-11-26 19:22:00,
2013-11-26 12:32:00,32.0,18.0,-100.00,West,264,11.0,15.0,55,0.00,,,0.01,519.000000,,2013-11-26 19:32:00,
2013-11-26 12:42:00,32.0,18.0,-100.00,West,264,11.0,15.0,55,0.00,,,0.01,519.000000,,2013-11-26 19:42:00,
2013-11-26 12:52:00,32.0,18.0,-100.00,West,264,11.0,15.0,55,0.00,,,0.01,519.000000,,2013-11-26 19:52:00,
2013-11-26 13:22:00,34.0,18.0,-100.00,West,260,11.0,14.0,52,0.00,,,0.01,528.000000,,2013-11-26 20:22:00,
2013-11-26 13:32:00,34.0,18.0,-100.00,West,260,11.0,14.0,52,0.00,,,0.01,528.000000,,2013-11-26 20:32:00,
2013-11-26 13:42:00,34.0,18.0,-100.00,West,260,11.0,14.0,52,0.00,,,0.01,528.000000,,2013-11-26 20:42:00,
2013-11-26 13:53:00,34.0,18.0,-100.00,West,260,11.0,14.0,52,0.00,,,0.01,528.000000,,2013-11-26 20:53:00,
2013-11-26 14:22:00,36.0,17.0,-100.00,WSW,257,11.0,19.0,46,0.00,,,0.01,479.000000,,2013-11-26 21:22:00,
2013-11-26 14:34:00,36.0,17.0,-100.00,WSW,257,11.0,19.0,46,0.00,,,0.01,479.000000,,2013-11-26 21:34:00,
2013-11-26 14:43:00,36.0,17.0,-100.00,WSW,257,11.0,19.0,46,0.00,,,0.01,479.000000,,2013-11-26 21:43:00,
2013-11-26 14:53:00,36.0,17.0,-100.00,WSW,257,11.0,19.0,46,0.00,,,0.01,479.000000,,2013-11-26 21:53:00,
2013-11-26 15:23:00,36.0,15.0,-100.00,West,263,11.0,17.0,41,0.00,,,0.01,376.000000,,2013-11-26 22:23:00,
2013-11-26 15:33:00,36.0,15.0,-100.00,West,263,11.0,17.0,41,0.00,,,0.01,376.000000,,2013-11-26 22:33:00,
2013-11-26 15:43:00,36.0,15.0,-100.00,West,263,11.0,17.0,41,0.00,,,0.01,376.000000,,2013-11-26 22:43:00,
2013-11-26 15:53:00,36.0,15.0,-100.00,West,263,11.0,17.0,41,0.00,,,0.01,376.000000,,2013-11-26 22:53:00,
2013-11-26 16:22:00,35.0,15.0,-100.00,West,261,10.0,16.0,43,0.00,,,0.01,230.000000,,2013-11-26 23:22:00,
2013-11-26 16:33:00,35.0,15.0,-100.00,West,261,10.0,16.0,43,0.00,,,0.01,230.000000,,2013-11-26 23:33:00,
2013-11-26 16:43:00,35.0,15.0,-100.00,West,261,10.0,16.0,43,0.00,,,0.01,230.000000,,2013-11-26 23:43:00,
2013-11-26 16:53:00,35.0,15.0,-100.00,West,261,10.0,16.0,43,0.00,,,0.01,230.000000,,2013-11-26 23:53:00,
2013-11-26 17:21:00,27.0,16.0,-100.00,WNW,297,4.0,15.0,63,0.00,,,0.01,54.000000,,2013-11-27 00:21:00,
2013-11-26 17:32:00,27.0,16.0,-100.00,WNW,297,4.0,15.0,63,0.00,,,0.01,54.000000,,2013-11-27 00:32:00,
2013-11-26 17:42:00,27.0,16.0,-100.00,WNW,297,4.0,15.0,63,0.00,,,0.01,54.000000,,2013-11-27 00:42:00,
2013-11-26 17:52:00,27.0,16.0,-100.00,WNW,297,4.0,15.0,63,0.00,,,0.01,54.000000,,2013-11-27 00:52:00,
2013-11-26 18:21:00,26.0,17.0,-100.00,NW,319,5.0,7.0,69,0.01,,,0.02,1.000000,,2013-11-27 01:21:00,
2013-11-26 18:32:00,26.0,17.0,-100.00,NW,319,5.0,7.0,69,0.01,,,0.02,1.000000,,2013-11-27 01:32:00,
2013-11-26 18:42:00,26.0,17.0,-100.00,NW,319,5.0,7.0,69,0.01,,,0.02,1.000000,,2013-11-27 01:42:00,
2013-11-26 18:52:00,26.0,17.0,-100.00,NW,319,5.0,7.0,69,0.01,,,0.02,1.000000,,2013-11-27 01:52:00,
2013-11-26 19:22:00,26.0,15.0,-100.00,North,8,3.0,7.0,63,0.00,,,0.02,0.000000,,2013-11-27 02:22:00,
2013-11-26 19:32:00,26.0,15.0,-100.00,North,8,3.0,7.0,63,0.00,,,0.02,0.000000,,2013-11-27 02:32:00,
2013-11-26 19:42:00,26.0,15.0,-100.00,North,8,3.0,7.0,63,0.00,,,0.02,0.000000,,2013-11-27 02:42:00,
2013-11-26 19:52:00,26.0,15.0,-100.00,North,8,3.0,7.0,63,0.00,,,0.02,0.000000,,2013-11-27 02:52:00,
2013-11-26 20:22:00,22.0,14.0,-100.00,East,79,3.0,5.0,71,0.00,,,0.02,0.000000,,2013-11-27 03:22:00,
2013-11-26 20:34:00,22.0,14.0,-100.00,East,79,3.0,5.0,71,0.00,,,0.02,0.000000,,2013-11-27 03:34:00,
2013-11-26 20:44:00,22.0,14.0,-100.00,East,79,3.0,5.0,71,0.00,,,0.02,0.000000,,2013-11-27 03:44:00,
2013-11-26 20:53:00,22.0,14.0,-100.00,East,79,3.0,5.0,71,0.00,,,0.02,0.000000,,2013-11-27 03:53:00,
2013-11-26 21:23:00,19.0,12.0,-100.00,East,82,6.0,7.0,74,0.00,,,0.02,0.000000,,2013-11-27 04:23:00,
2013-11-26 21:34:00,19.0,12.0,-100.00,East,82,6.0,7.0,74,0.00,,,0.02,0.000000,,2013-11-27 04:34:00,
2013-11-26 21:43:00,19.0,12.0,-100.00,East,82,6.0,7.0,74,0.00,,,0.02,0.000000,,2013-11-27 04:43:00,
2013-11-26 21:53:00,19.0,12.0,-100.00,East,82,6.0,7.0,74,0.00,,,0.02,0.000000,,2013-11-27 04:53:00,
2013-11-26 22:22:00,18.0,11.0,-100.00,East,101,5.0,9.0,75,0.00,,,0.02,0.000000,,2013-11-27 05:22:00,
2013-11-26 22:33:00,18.0,11.0,-100.00,East,101,5.0,9.0,75,0.00,,,0.02,0.000000,,2013-11-27 05:33:00,
2013-11-26 22:42:00,18.0,11.0,-100.00,East,101,5.0,9.0,75,0.00,,,0.02,0.000000,,2013-11-27 05:42:00,
2013-11-26 22:53:00,18.0,11.0,-100.00,East,101,5.0,9.0,75,0.00,,,0.02,0.000000,,2013-11-27 05:53:00,
2013-11-26 23:22:00,17.0,11.0,-100.00,ESE,117,6.0,8.0,78,0.00,,,0.02,0.000000,,2013-11-27 06:22:00,
2013-11-26 23:32:00,17.0,11.0,-100.00,ESE,117,6.0,8.0,78,0.00,,,0.02,0.000000,,2013-11-27 06:32:00,
2013-11-26 23:42:00,17.0,11.0,-100.00,ESE,117,6.0,8.0,78,0.00,,,0.02,0.000000,,2013-11-27 06:42:00,
2013-11-26 23:52:00,17.0,11.0,-100.00,ESE,117,6.0,8.0,78,0.00,,,0.02,0.000000,,2013-11-27 06:52:00,